createdAt,value
2018-09-25T00:05:39.000Z,47
2018-09-25T00:15:39.000Z,46.9
2018-09-25T00:25:39.000Z,46.9
2018-09-25T00:35:39.000Z,46.6
2018-09-25T00:45:39.000Z,46.7
2018-09-25T00:55:39.000Z,46.7
2018-09-25T01:05:39.000Z,46.8
2018-09-25T01:15:39.000Z,47
2018-09-25T01:25:39.000Z,47.1
2018-09-25T01:35:39.000Z,47.2
2018-09-25T01:45:39.000Z,47.4
2018-09-25T01:55:39.000Z,47.9
2018-09-25T02:05:39.000Z,47.7
2018-09-25T02:15:39.000Z,47.8
2018-09-25T02:25:39.000Z,47.5
2018-09-25T02:35:39.000Z,47.4
2018-09-25T02:45:39.000Z,47.2
2018-09-25T02:55:39.000Z,47.2
2018-09-25T03:05:39.000Z,47.2
2018-09-25T03:15:39.000Z,47.1
2018-09-25T03:25:39.000Z,47.4
2018-09-25T03:35:39.000Z,46.9
2018-09-25T03:45:39.000Z,47.4
2018-09-25T03:55:39.000Z,46.6
2018-09-25T04:05:40.000Z,46.5
2018-09-25T04:15:39.000Z,46.4
2018-09-25T04:25:39.000Z,46.6
2018-09-25T04:35:39.000Z,46.8
2018-09-25T04:45:40.000Z,46.5
2018-09-25T04:55:40.000Z,46.3
2018-09-25T05:05:40.000Z,46.6
2018-09-25T05:15:40.000Z,46.4
2018-09-25T05:25:40.000Z,46.5
2018-09-25T05:35:40.000Z,46.5
2018-09-25T05:45:40.000Z,45.7
2018-09-25T05:55:40.000Z,46.1
2018-09-25T06:15:40.000Z,46
2018-09-25T06:25:40.000Z,46
2018-09-25T06:35:40.000Z,45.8
2018-09-25T06:45:40.000Z,45.8
2018-09-25T06:55:40.000Z,46.1
2018-09-25T07:05:40.000Z,46.2
2018-09-25T07:15:40.000Z,46.1
2018-09-25T07:25:40.000Z,46.4
2018-09-25T07:35:40.000Z,46.6
2018-09-25T07:45:40.000Z,46.5
2018-09-25T07:55:40.000Z,46.6
2018-09-25T08:05:40.000Z,46.5
2018-09-25T08:15:40.000Z,46.6
2018-09-25T08:25:40.000Z,46.9
2018-09-25T08:35:40.000Z,46.5
2018-09-25T08:45:40.000Z,46.9
2018-09-25T08:55:40.000Z,46.9
2018-09-25T09:05:40.000Z,46.8
2018-09-25T09:15:40.000Z,46.9
2018-09-25T09:25:40.000Z,46.5
2018-09-25T09:35:40.000Z,52.2
2018-09-25T09:45:40.000Z,52.1
2018-09-25T09:55:40.000Z,52.7
2018-09-25T10:05:40.000Z,52.8
2018-09-25T10:15:40.000Z,53
2018-09-25T10:25:40.000Z,53
2018-09-25T10:35:40.000Z,53.2
2018-09-25T10:45:40.000Z,53.3
2018-09-25T10:55:40.000Z,53.3
2018-09-25T11:05:40.000Z,53.4
2018-09-25T11:15:40.000Z,53.5
2018-09-25T11:25:40.000Z,53.6
2018-09-25T11:35:40.000Z,53.5
2018-09-25T11:45:41.000Z,53.3
2018-09-25T11:55:41.000Z,53.5
2018-09-25T12:05:41.000Z,53.6
2018-09-25T12:15:41.000Z,53.7
2018-09-25T12:25:41.000Z,53.8
2018-09-25T12:35:41.000Z,53.9
2018-09-25T12:45:41.000Z,54.5
2018-09-25T12:55:41.000Z,54.8
2018-09-25T13:05:41.000Z,55.7
2018-09-25T13:15:41.000Z,56.4
2018-09-25T13:25:41.000Z,57.7
2018-09-25T13:35:41.000Z,57.2
2018-09-25T13:55:41.000Z,57.1
2018-09-25T14:05:41.000Z,56.8
2018-09-25T14:15:41.000Z,56.4
2018-09-25T14:25:41.000Z,56.4
2018-09-25T14:35:41.000Z,56
2018-09-25T14:45:41.000Z,55.7
2018-09-25T14:55:41.000Z,55.6
2018-09-25T15:05:41.000Z,55.6
2018-09-25T15:15:41.000Z,55.5
2018-09-25T15:25:42.000Z,55.5
2018-09-25T15:35:41.000Z,55.7
2018-09-25T15:45:41.000Z,55.3
2018-09-25T15:55:41.000Z,54.8
2018-09-25T16:05:41.000Z,54.6
2018-09-25T16:15:41.000Z,54.1
2018-09-25T16:25:41.000Z,54
2018-09-25T16:35:41.000Z,54.5
2018-09-25T16:45:41.000Z,55.2
2018-09-25T16:55:41.000Z,55.8
2018-09-25T17:05:41.000Z,55.6
2018-09-25T17:15:41.000Z,55.7
2018-09-25T17:25:41.000Z,55.7
2018-09-25T17:35:41.000Z,56.2
2018-09-25T17:45:41.000Z,56
2018-09-25T17:55:41.000Z,56.1
2018-09-25T18:05:42.000Z,56
2018-09-25T18:15:41.000Z,56
2018-09-25T18:25:41.000Z,56.3
2018-09-25T18:45:42.000Z,55.3
2018-09-25T18:55:42.000Z,55.5
2018-09-25T19:05:42.000Z,55.3
2018-09-25T19:15:42.000Z,55.7
2018-09-25T19:25:42.000Z,57.6
2018-09-25T19:35:42.000Z,58.1
2018-09-25T19:45:42.000Z,58
2018-09-25T19:55:42.000Z,57.6
2018-09-25T20:05:43.000Z,57.8
2018-09-25T20:15:42.000Z,57.3
2018-09-25T20:25:42.000Z,56.7
2018-09-25T20:35:42.000Z,56.7
2018-09-25T20:45:42.000Z,46.3
2018-09-25T20:55:42.000Z,44.7
2018-09-25T21:05:42.000Z,44.6
2018-09-25T21:15:42.000Z,44.2
2018-09-25T21:25:42.000Z,44.2
2018-09-25T21:35:42.000Z,44.3
2018-09-25T21:45:42.000Z,44.2
2018-09-25T21:55:42.000Z,44.4
2018-09-25T22:05:42.000Z,43.9
2018-09-25T22:15:42.000Z,43.8
2018-09-25T22:25:42.000Z,44.1
2018-09-25T22:35:42.000Z,44
2018-09-25T22:45:42.000Z,44
2018-09-25T22:55:42.000Z,44.4
2018-09-25T23:05:42.000Z,44.9
2018-09-25T23:15:42.000Z,45
2018-09-25T23:25:42.000Z,45.1
2018-09-25T23:35:42.000Z,45.1
2018-09-25T23:45:42.000Z,45.1
2018-09-25T23:55:42.000Z,45
